sensor_id;sensor_type;location;lat;lon;timestamp;pressure;altitude;pressure_sealevel;temperature;humidity
21956;BME280;11142;49.930;8.606;2022-07-19T00:00:18;100399.47;;;20.92;51.46
21956;BME280;11142;49.930;8.606;2022-07-19T00:02:47;100404.53;;;20.85;51.86
21956;BME280;11142;49.930;8.606;2022-07-19T00:05:15;100404.06;;;20.90;52.07
21956;BME280;11142;49.930;8.606;2022-07-19T00:07:43;100401.63;;;20.96;52.08
21956;BME280;11142;49.930;8.606;2022-07-19T00:10:13;100402.50;;;21.05;51.23
21956;BME280;11142;49.930;8.606;2022-07-19T00:12:42;100404.84;;;21.08;51.34
21956;BME280;11142;49.930;8.606;2022-07-19T00:15:12;100407.94;;;21.03;51.53
21956;BME280;11142;49.930;8.606;2022-07-19T00:17:44;100407.22;;;20.93;51.43
21956;BME280;11142;49.930;8.606;2022-07-19T00:20:15;100409.81;;;20.85;51.75
21956;BME280;11142;49.930;8.606;2022-07-19T00:22:43;100396.84;;;20.74;51.53
21956;BME280;11142;49.930;8.606;2022-07-19T00:25:12;100412.38;;;20.77;51.51
21956;BME280;11142;49.930;8.606;2022-07-19T00:27:40;100399.50;;;20.74;51.37
21956;BME280;11142;49.930;8.606;2022-07-19T00:30:10;100397.66;;;20.66;50.64
21956;BME280;11142;49.930;8.606;2022-07-19T00:32:38;100403.44;;;20.70;50.62
21956;BME280;11142;49.930;8.606;2022-07-19T00:35:08;100400.44;;;20.65;50.76
21956;BME280;11142;49.930;8.606;2022-07-19T00:37:37;100402.22;;;20.64;50.80
21956;BME280;11142;49.930;8.606;2022-07-19T00:40:13;100407.00;;;20.61;51.08
21956;BME280;11142;49.930;8.606;2022-07-19T00:42:42;100402.03;;;20.58;50.88
21956;BME280;11142;49.930;8.606;2022-07-19T00:45:10;100402.94;;;20.49;51.07
21956;BME280;11142;49.930;8.606;2022-07-19T00:47:39;100399.91;;;20.36;51.80
21956;BME280;11142;49.930;8.606;2022-07-19T00:50:09;100403.63;;;20.33;51.88
21956;BME280;11142;49.930;8.606;2022-07-19T00:52:38;100400.63;;;20.28;52.01
21956;BME280;11142;49.930;8.606;2022-07-19T00:55:08;100398.56;;;20.22;52.37
21956;BME280;11142;49.930;8.606;2022-07-19T00:57:37;100409.88;;;20.14;52.60
21956;BME280;11142;49.930;8.606;2022-07-19T01:00:07;100403.53;;;20.07;53.12
21956;BME280;11142;49.930;8.606;2022-07-19T01:02:36;100405.72;;;19.94;54.03
21956;BME280;11142;49.930;8.606;2022-07-19T01:05:06;100409.28;;;19.76;54.68
21956;BME280;11142;49.930;8.606;2022-07-19T01:07:37;100407.72;;;19.65;55.17
21956;BME280;11142;49.930;8.606;2022-07-19T01:10:08;100405.13;;;19.55;55.60
21956;BME280;11142;49.930;8.606;2022-07-19T01:12:38;100403.50;;;19.45;56.10
21956;BME280;11142;49.930;8.606;2022-07-19T01:15:14;100407.66;;;19.38;56.39
21956;BME280;11142;49.930;8.606;2022-07-19T01:17:43;100405.31;;;19.44;56.07
21956;BME280;11142;49.930;8.606;2022-07-19T01:20:11;100406.13;;;19.45;56.01
21956;BME280;11142;49.930;8.606;2022-07-19T01:22:40;100408.41;;;19.40;55.67
21956;BME280;11142;49.930;8.606;2022-07-19T01:25:09;100405.19;;;19.36;56.32
21956;BME280;11142;49.930;8.606;2022-07-19T01:27:39;100408.94;;;19.34;56.81
21956;BME280;11142;49.930;8.606;2022-07-19T01:30:12;100409.00;;;19.24;57.91
21956;BME280;11142;49.930;8.606;2022-07-19T01:32:43;100404.47;;;19.07;57.76
21956;BME280;11142;49.930;8.606;2022-07-19T01:35:12;100413.00;;;19.19;57.74
21956;BME280;11142;49.930;8.606;2022-07-19T01:37:42;100396.84;;;19.14;57.88
21956;BME280;11142;49.930;8.606;2022-07-19T01:40:13;100411.25;;;19.09;57.73
21956;BME280;11142;49.930;8.606;2022-07-19T01:42:42;100400.66;;;18.92;58.43
21956;BME280;11142;49.930;8.606;2022-07-19T01:45:11;100403.84;;;18.86;58.33
21956;BME280;11142;49.930;8.606;2022-07-19T01:47:41;100403.56;;;18.89;58.55
21956;BME280;11142;49.930;8.606;2022-07-19T01:50:12;100404.84;;;18.56;61.63
21956;BME280;11142;49.930;8.606;2022-07-19T01:52:43;100398.75;;;18.27;64.34
21956;BME280;11142;49.930;8.606;2022-07-19T01:55:16;100393.78;;;18.43;63.29
21956;BME280;11142;49.930;8.606;2022-07-19T01:57:44;100399.31;;;18.69;62.13
21956;BME280;11142;49.930;8.606;2022-07-19T02:00:12;100392.97;;;18.52;62.80
21956;BME280;11142;49.930;8.606;2022-07-19T02:02:41;100399.44;;;18.77;61.46
21956;BME280;11142;49.930;8.606;2022-07-19T02:05:09;100396.63;;;18.88;60.13
21956;BME280;11142;49.930;8.606;2022-07-19T02:07:38;100396.50;;;18.89;60.11
21956;BME280;11142;49.930;8.606;2022-07-19T02:10:10;100398.88;;;18.83;60.17
21956;BME280;11142;49.930;8.606;2022-07-19T02:12:39;100393.72;;;18.91;59.55
21956;BME280;11142;49.930;8.606;2022-07-19T02:15:09;100394.53;;;19.01;59.07
21956;BME280;11142;49.930;8.606;2022-07-19T02:17:40;100384.03;;;18.91;59.69
21956;BME280;11142;49.930;8.606;2022-07-19T02:20:09;100389.59;;;18.79;59.54
21956;BME280;11142;49.930;8.606;2022-07-19T02:22:38;100397.66;;;18.39;61.27
21956;BME280;11142;49.930;8.606;2022-07-19T02:25:08;100386.16;;;18.30;61.39
21956;BME280;11142;49.930;8.606;2022-07-19T02:27:36;100385.06;;;18.52;60.60
21956;BME280;11142;49.930;8.606;2022-07-19T02:30:05;100387.84;;;18.60;59.61
21956;BME280;11142;49.930;8.606;2022-07-19T02:32:33;100385.91;;;18.24;60.85
21956;BME280;11142;49.930;8.606;2022-07-19T02:35:01;100389.34;;;18.15;61.40
21956;BME280;11142;49.930;8.606;2022-07-19T02:37:29;100383.53;;;18.11;61.84
21956;BME280;11142;49.930;8.606;2022-07-19T02:39:57;100381.19;;;17.98;62.41
21956;BME280;11142;49.930;8.606;2022-07-19T02:42:27;100375.38;;;17.85;62.97
21956;BME280;11142;49.930;8.606;2022-07-19T02:44:55;100376.38;;;17.94;62.93
21956;BME280;11142;49.930;8.606;2022-07-19T02:47:22;100374.16;;;18.18;61.76
21956;BME280;11142;49.930;8.606;2022-07-19T02:49:50;100373.03;;;18.21;61.45
21956;BME280;11142;49.930;8.606;2022-07-19T02:52:18;100370.84;;;18.35;61.09
21956;BME280;11142;49.930;8.606;2022-07-19T02:54:47;100373.31;;;18.37;60.62
21956;BME280;11142;49.930;8.606;2022-07-19T02:57:14;100375.09;;;18.36;60.83
21956;BME280;11142;49.930;8.606;2022-07-19T02:59:44;100369.84;;;18.27;61.13
21956;BME280;11142;49.930;8.606;2022-07-19T03:02:12;100374.59;;;18.14;61.61
21956;BME280;11142;49.930;8.606;2022-07-19T03:04:40;100375.50;;;17.74;63.71
21956;BME280;11142;49.930;8.606;2022-07-19T03:07:08;100369.25;;;17.56;64.32
21956;BME280;11142;49.930;8.606;2022-07-19T03:09:36;100370.16;;;17.45;64.11
21956;BME280;11142;49.930;8.606;2022-07-19T03:12:05;100377.50;;;17.51;63.99
21956;BME280;11142;49.930;8.606;2022-07-19T03:14:33;100377.47;;;17.42;64.71
21956;BME280;11142;49.930;8.606;2022-07-19T03:17:02;100374.28;;;17.38;65.21
21956;BME280;11142;49.930;8.606;2022-07-19T03:19:30;100374.38;;;17.27;65.54
21956;BME280;11142;49.930;8.606;2022-07-19T03:21:58;100374.66;;;17.24;65.81
21956;BME280;11142;49.930;8.606;2022-07-19T03:24:26;100377.41;;;17.23;66.27
21956;BME280;11142;49.930;8.606;2022-07-19T03:26:54;100373.25;;;17.20;66.22
21956;BME280;11142;49.930;8.606;2022-07-19T03:29:22;100388.47;;;17.26;66.12
21956;BME280;11142;49.930;8.606;2022-07-19T03:31:56;100381.69;;;17.24;66.76
21956;BME280;11142;49.930;8.606;2022-07-19T03:34:26;100388.75;;;17.33;66.49
21956;BME280;11142;49.930;8.606;2022-07-19T03:36:55;100398.53;;;17.21;67.19
21956;BME280;11142;49.930;8.606;2022-07-19T03:39:23;100399.97;;;17.05;68.38
21956;BME280;11142;49.930;8.606;2022-07-19T03:41:51;100394.94;;;16.92;69.99
21956;BME280;11142;49.930;8.606;2022-07-19T03:44:26;100397.56;;;16.92;70.42
21956;BME280;11142;49.930;8.606;2022-07-19T03:46:54;100399.28;;;16.82;70.80
21956;BME280;11142;49.930;8.606;2022-07-19T03:49:22;100400.88;;;16.94;69.75
21956;BME280;11142;49.930;8.606;2022-07-19T03:51:52;100404.63;;;17.01;69.18
21956;BME280;11142;49.930;8.606;2022-07-19T03:54:20;100398.03;;;17.07;68.26
21956;BME280;11142;49.930;8.606;2022-07-19T03:56:48;100405.81;;;17.18;67.71
21956;BME280;11142;49.930;8.606;2022-07-19T03:59:16;100398.91;;;17.17;68.16
21956;BME280;11142;49.930;8.606;2022-07-19T04:01:44;100405.31;;;17.24;67.96
21956;BME280;11142;49.930;8.606;2022-07-19T04:04:13;100402.03;;;17.41;66.76
21956;BME280;11142;49.930;8.606;2022-07-19T04:06:41;100400.69;;;17.46;66.08
21956;BME280;11142;49.930;8.606;2022-07-19T04:09:10;100399.44;;;17.50;66.00
21956;BME280;11142;49.930;8.606;2022-07-19T04:11:39;100398.75;;;17.79;65.50
21956;BME280;11142;49.930;8.606;2022-07-19T04:14:07;100398.63;;;17.99;64.78
21956;BME280;11142;49.930;8.606;2022-07-19T04:16:38;100401.66;;;18.33;63.44
21956;BME280;11142;49.930;8.606;2022-07-19T04:19:06;100398.63;;;18.47;62.55
21956;BME280;11142;49.930;8.606;2022-07-19T04:21:34;100397.19;;;18.82;61.20
21956;BME280;11142;49.930;8.606;2022-07-19T04:24:03;100403.69;;;19.43;59.58
21956;BME280;11142;49.930;8.606;2022-07-19T04:26:38;100404.97;;;20.02;55.98
21956;BME280;11142;49.930;8.606;2022-07-19T04:29:06;100411.41;;;20.35;54.36
21956;BME280;11142;49.930;8.606;2022-07-19T04:31:34;100410.22;;;20.55;53.34
21956;BME280;11142;49.930;8.606;2022-07-19T04:34:02;100407.78;;;20.79;52.28
21956;BME280;11142;49.930;8.606;2022-07-19T04:36:30;100411.25;;;21.05;51.77
21956;BME280;11142;49.930;8.606;2022-07-19T04:38:58;100396.59;;;21.37;49.94
21956;BME280;11142;49.930;8.606;2022-07-19T04:41:26;100398.16;;;21.55;49.43
21956;BME280;11142;49.930;8.606;2022-07-19T04:43:55;100397.72;;;21.76;48.26
21956;BME280;11142;49.930;8.606;2022-07-19T04:46:23;100399.69;;;21.82;47.93
21956;BME280;11142;49.930;8.606;2022-07-19T04:48:51;100395.06;;;21.76;47.94
21956;BME280;11142;49.930;8.606;2022-07-19T04:51:20;100402.97;;;21.68;47.92
21956;BME280;11142;49.930;8.606;2022-07-19T04:53:48;100406.91;;;21.56;48.23
21956;BME280;11142;49.930;8.606;2022-07-19T04:56:16;100400.63;;;21.57;48.59
21956;BME280;11142;49.930;8.606;2022-07-19T04:58:43;100399.34;;;21.27;49.55
21956;BME280;11142;49.930;8.606;2022-07-19T05:01:13;100401.75;;;21.46;49.15
21956;BME280;11142;49.930;8.606;2022-07-19T05:03:41;100399.13;;;21.96;47.85
21956;BME280;11142;49.930;8.606;2022-07-19T05:06:09;100408.06;;;22.03;47.63
21956;BME280;11142;49.930;8.606;2022-07-19T05:08:37;100401.31;;;22.25;46.84
21956;BME280;11142;49.930;8.606;2022-07-19T05:11:05;100414.50;;;21.17;53.12
21956;BME280;11142;49.930;8.606;2022-07-19T05:13:33;100404.22;;;20.88;54.57
21956;BME280;11142;49.930;8.606;2022-07-19T05:16:01;100399.66;;;20.98;54.96
21956;BME280;11142;49.930;8.606;2022-07-19T05:18:31;100410.09;;;20.56;55.58
21956;BME280;11142;49.930;8.606;2022-07-19T05:20:59;100407.38;;;20.66;55.09
21956;BME280;11142;49.930;8.606;2022-07-19T05:23:27;100406.09;;;20.70;55.45
21956;BME280;11142;49.930;8.606;2022-07-19T05:25:56;100408.94;;;21.02;53.51
21956;BME280;11142;49.930;8.606;2022-07-19T05:28:24;100407.06;;;20.95;53.50
21956;BME280;11142;49.930;8.606;2022-07-19T05:30:52;100409.28;;;21.07;53.09
21956;BME280;11142;49.930;8.606;2022-07-19T05:33:20;100402.84;;;21.36;52.74
21956;BME280;11142;49.930;8.606;2022-07-19T05:35:50;100405.72;;;21.16;53.93
21956;BME280;11142;49.930;8.606;2022-07-19T05:38:18;100400.47;;;22.16;50.53
21956;BME280;11142;49.930;8.606;2022-07-19T05:40:46;100400.97;;;22.93;47.82
21956;BME280;11142;49.930;8.606;2022-07-19T05:43:15;100406.25;;;22.60;48.25
21956;BME280;11142;49.930;8.606;2022-07-19T05:45:46;100403.22;;;23.04;47.46
21956;BME280;11142;49.930;8.606;2022-07-19T05:48:14;100407.78;;;23.73;45.43
21956;BME280;11142;49.930;8.606;2022-07-19T05:50:44;100410.41;;;24.12;44.25
21956;BME280;11142;49.930;8.606;2022-07-19T05:53:17;100411.47;;;23.64;45.72
21956;BME280;11142;49.930;8.606;2022-07-19T05:55:46;100407.34;;;23.61;45.55
21956;BME280;11142;49.930;8.606;2022-07-19T05:58:14;100402.78;;;23.39;46.30
21956;BME280;11142;49.930;8.606;2022-07-19T06:00:45;100418.53;;;24.33;44.36
21956;BME280;11142;49.930;8.606;2022-07-19T06:03:27;100416.97;;;25.28;42.42
21956;BME280;11142;49.930;8.606;2022-07-19T06:05:55;100419.59;;;26.22;39.87
21956;BME280;11142;49.930;8.606;2022-07-19T06:08:25;100421.31;;;26.58;38.62
21956;BME280;11142;49.930;8.606;2022-07-19T06:10:53;100424.88;;;26.86;37.79
21956;BME280;11142;49.930;8.606;2022-07-19T06:13:22;100421.88;;;27.02;37.08
21956;BME280;11142;49.930;8.606;2022-07-19T06:15:51;100429.47;;;27.33;36.34
21956;BME280;11142;49.930;8.606;2022-07-19T06:18:19;100435.19;;;27.30;36.47
21956;BME280;11142;49.930;8.606;2022-07-19T06:20:48;100428.03;;;27.84;34.72
21956;BME280;11142;49.930;8.606;2022-07-19T06:23:16;100442.19;;;27.37;35.63
21956;BME280;11142;49.930;8.606;2022-07-19T06:25:47;100439.94;;;27.82;34.44
21956;BME280;11142;49.930;8.606;2022-07-19T06:28:16;100440.88;;;28.09;34.24
21956;BME280;11142;49.930;8.606;2022-07-19T06:30:44;100443.78;;;28.27;33.10
21956;BME280;11142;49.930;8.606;2022-07-19T06:33:13;100439.69;;;28.37;33.78
21956;BME280;11142;49.930;8.606;2022-07-19T06:35:41;100436.22;;;28.89;33.21
21956;BME280;11142;49.930;8.606;2022-07-19T06:38:09;100434.59;;;28.75;33.59
21956;BME280;11142;49.930;8.606;2022-07-19T06:40:38;100430.81;;;29.22;32.79
21956;BME280;11142;49.930;8.606;2022-07-19T06:43:08;100431.03;;;29.21;32.35
21956;BME280;11142;49.930;8.606;2022-07-19T06:45:38;100428.00;;;28.84;32.34
21956;BME280;11142;49.930;8.606;2022-07-19T06:48:06;100420.41;;;28.88;32.37
21956;BME280;11142;49.930;8.606;2022-07-19T06:50:35;100426.09;;;29.18;32.40
21956;BME280;11142;49.930;8.606;2022-07-19T06:53:07;100435.19;;;29.04;32.48
21956;BME280;11142;49.930;8.606;2022-07-19T06:55:39;100426.94;;;29.12;32.85
21956;BME280;11142;49.930;8.606;2022-07-19T06:58:08;100430.88;;;28.96;32.58
21956;BME280;11142;49.930;8.606;2022-07-19T07:00:37;100435.19;;;29.10;33.04
21956;BME280;11142;49.930;8.606;2022-07-19T07:03:05;100427.75;;;29.12;32.36
21956;BME280;11142;49.930;8.606;2022-07-19T07:05:33;100423.78;;;29.47;31.55
21956;BME280;11142;49.930;8.606;2022-07-19T07:08:02;100437.31;;;29.59;31.73
21956;BME280;11142;49.930;8.606;2022-07-19T07:10:31;100438.56;;;30.01;30.90
21956;BME280;11142;49.930;8.606;2022-07-19T07:12:59;100446.06;;;30.55;30.10
21956;BME280;11142;49.930;8.606;2022-07-19T07:15:29;100446.22;;;31.28;29.06
21956;BME280;11142;49.930;8.606;2022-07-19T07:17:58;100450.69;;;31.58;27.93
21956;BME280;11142;49.930;8.606;2022-07-19T07:20:26;100444.44;;;31.76;27.90
21956;BME280;11142;49.930;8.606;2022-07-19T07:22:55;100448.50;;;32.15;28.13
21956;BME280;11142;49.930;8.606;2022-07-19T07:25:23;100456.00;;;33.01;27.51
21956;BME280;11142;49.930;8.606;2022-07-19T07:27:51;100449.88;;;33.40;26.29
21956;BME280;11142;49.930;8.606;2022-07-19T07:30:20;100449.25;;;33.73;25.72
21956;BME280;11142;49.930;8.606;2022-07-19T07:32:50;100444.69;;;34.02;25.51
21956;BME280;11142;49.930;8.606;2022-07-19T07:35:18;100453.22;;;34.72;25.07
21956;BME280;11142;49.930;8.606;2022-07-19T07:37:46;100440.97;;;35.03;24.07
21956;BME280;11142;49.930;8.606;2022-07-19T07:40:15;100449.97;;;35.25;24.07
21956;BME280;11142;49.930;8.606;2022-07-19T07:42:44;100450.72;;;35.86;23.39
21956;BME280;11142;49.930;8.606;2022-07-19T07:45:12;100449.91;;;35.85;23.86
21956;BME280;11142;49.930;8.606;2022-07-19T07:47:41;100450.00;;;36.22;22.20
21956;BME280;11142;49.930;8.606;2022-07-19T07:50:11;100450.19;;;36.42;22.86
21956;BME280;11142;49.930;8.606;2022-07-19T07:52:39;100453.88;;;36.58;22.67
21956;BME280;11142;49.930;8.606;2022-07-19T07:55:10;100450.59;;;36.93;22.69
21956;BME280;11142;49.930;8.606;2022-07-19T07:57:56;100449.91;;;37.59;21.94
21956;BME280;11142;49.930;8.606;2022-07-19T08:00:25;100454.38;;;38.06;21.29
21956;BME280;11142;49.930;8.606;2022-07-19T08:02:54;100453.00;;;38.03;20.67
21956;BME280;11142;49.930;8.606;2022-07-19T08:05:24;100443.59;;;38.36;20.50
21956;BME280;11142;49.930;8.606;2022-07-19T08:07:52;100444.41;;;38.37;20.10
21956;BME280;11142;49.930;8.606;2022-07-19T08:10:21;100436.78;;;38.54;20.69
21956;BME280;11142;49.930;8.606;2022-07-19T08:12:50;100432.97;;;38.85;19.41
21956;BME280;11142;49.930;8.606;2022-07-19T08:15:18;100436.44;;;39.26;19.26
21956;BME280;11142;49.930;8.606;2022-07-19T08:17:48;100441.63;;;40.20;18.80
21956;BME280;11142;49.930;8.606;2022-07-19T08:20:16;100437.88;;;40.45;18.02
21956;BME280;11142;49.930;8.606;2022-07-19T08:22:46;100444.59;;;41.34;17.78
21956;BME280;11142;49.930;8.606;2022-07-19T08:25:14;100453.09;;;42.12;16.42
21956;BME280;11142;49.930;8.606;2022-07-19T08:27:44;100452.00;;;41.95;17.00
21956;BME280;11142;49.930;8.606;2022-07-19T08:30:13;100449.19;;;42.37;16.77
21956;BME280;11142;49.930;8.606;2022-07-19T08:32:41;100446.19;;;43.12;16.44
21956;BME280;11142;49.930;8.606;2022-07-19T08:35:10;100443.09;;;43.68;15.22
21956;BME280;11142;49.930;8.606;2022-07-19T08:37:38;100444.41;;;44.20;15.26
21956;BME280;11142;49.930;8.606;2022-07-19T08:40:09;100436.00;;;45.00;14.88
21956;BME280;11142;49.930;8.606;2022-07-19T08:42:37;100434.03;;;43.95;15.08
21956;BME280;11142;49.930;8.606;2022-07-19T08:45:08;100439.31;;;44.88;14.33
21956;BME280;11142;49.930;8.606;2022-07-19T08:47:38;100440.34;;;45.66;14.17
21956;BME280;11142;49.930;8.606;2022-07-19T08:50:09;100440.38;;;46.26;13.76
21956;BME280;11142;49.930;8.606;2022-07-19T08:52:39;100439.38;;;45.54;14.30
21956;BME280;11142;49.930;8.606;2022-07-19T08:55:10;100438.69;;;44.61;14.86
21956;BME280;11142;49.930;8.606;2022-07-19T08:57:38;100441.06;;;45.24;13.67
21956;BME280;11142;49.930;8.606;2022-07-19T09:00:25;100440.72;;;45.82;13.98
21956;BME280;11142;49.930;8.606;2022-07-19T09:02:55;100437.31;;;46.19;13.32
21956;BME280;11142;49.930;8.606;2022-07-19T09:05:23;100432.28;;;45.53;13.29
21956;BME280;11142;49.930;8.606;2022-07-19T09:08:04;100435.50;;;45.63;13.47
21956;BME280;11142;49.930;8.606;2022-07-19T09:10:36;100434.66;;;45.46;13.58
21956;BME280;11142;49.930;8.606;2022-07-19T09:13:07;100429.25;;;45.71;13.17
21956;BME280;11142;49.930;8.606;2022-07-19T09:15:39;100432.94;;;45.84;13.43
21956;BME280;11142;49.930;8.606;2022-07-19T09:18:10;100429.50;;;46.47;12.83
21956;BME280;11142;49.930;8.606;2022-07-19T09:20:39;100420.31;;;45.31;13.15
21956;BME280;11142;49.930;8.606;2022-07-19T09:23:08;100419.97;;;45.33;13.23
21956;BME280;11142;49.930;8.606;2022-07-19T09:25:40;100413.91;;;44.43;14.05
21956;BME280;11142;49.930;8.606;2022-07-19T09:28:12;100409.88;;;44.41;14.01
21956;BME280;11142;49.930;8.606;2022-07-19T09:30:42;100401.22;;;44.17;14.50
21956;BME280;11142;49.930;8.606;2022-07-19T09:33:15;100395.53;;;43.91;14.58
21956;BME280;11142;49.930;8.606;2022-07-19T09:35:46;100386.75;;;42.76;14.44
21956;BME280;11142;49.930;8.606;2022-07-19T09:38:16;100388.38;;;42.18;15.80
21956;BME280;11142;49.930;8.606;2022-07-19T09:40:47;100388.16;;;41.77;16.03
21956;BME280;11142;49.930;8.606;2022-07-19T09:43:16;100380.09;;;42.23;15.67
21956;BME280;11142;49.930;8.606;2022-07-19T09:46:29;100393.56;;;42.33;15.15
21956;BME280;11142;49.930;8.606;2022-07-19T09:49:06;100383.53;;;41.77;16.14
21956;BME280;11142;49.930;8.606;2022-07-19T09:51:36;100383.44;;;42.01;15.92
21956;BME280;11142;49.930;8.606;2022-07-19T09:54:06;100381.81;;;42.32;16.48
21956;BME280;11142;49.930;8.606;2022-07-19T09:56:37;100383.75;;;42.32;15.91
21956;BME280;11142;49.930;8.606;2022-07-19T09:59:08;100375.59;;;42.46;16.06
21956;BME280;11142;49.930;8.606;2022-07-19T10:01:57;100378.91;;;42.43;15.99
21956;BME280;11142;49.930;8.606;2022-07-19T10:04:26;100374.72;;;42.64;15.26
21956;BME280;11142;49.930;8.606;2022-07-19T10:06:54;100371.34;;;41.09;16.07
21956;BME280;11142;49.930;8.606;2022-07-19T10:09:23;100354.47;;;39.04;17.59
21956;BME280;11142;49.930;8.606;2022-07-19T10:11:57;100356.16;;;38.85;17.71
21956;BME280;11142;49.930;8.606;2022-07-19T10:14:25;100341.72;;;38.94;17.77
21956;BME280;11142;49.930;8.606;2022-07-19T10:17:02;100334.78;;;38.22;18.94
21956;BME280;11142;49.930;8.606;2022-07-19T10:19:39;100340.72;;;38.60;18.54
21956;BME280;11142;49.930;8.606;2022-07-19T10:22:11;100346.47;;;39.27;18.21
21956;BME280;11142;49.930;8.606;2022-07-19T10:24:51;100343.13;;;40.23;17.23
21956;BME280;11142;49.930;8.606;2022-07-19T10:27:37;100346.34;;;41.25;16.79
21956;BME280;11142;49.930;8.606;2022-07-19T10:30:38;100338.84;;;42.06;16.20
21956;BME280;11142;49.930;8.606;2022-07-19T10:33:29;100336.66;;;42.08;15.77
21956;BME280;11142;49.930;8.606;2022-07-19T10:42:03;100321.81;;;40.59;16.18
21956;BME280;11142;49.930;8.606;2022-07-19T10:44:33;100324.13;;;41.37;15.84
21956;BME280;11142;49.930;8.606;2022-07-19T10:47:02;100317.03;;;42.06;15.30
21956;BME280;11142;49.930;8.606;2022-07-19T10:49:43;100309.44;;;41.14;15.61
21956;BME280;11142;49.930;8.606;2022-07-19T10:52:31;100302.22;;;41.42;16.06
21956;BME280;11142;49.930;8.606;2022-07-19T10:55:24;100302.44;;;41.46;15.88
21956;BME280;11142;49.930;8.606;2022-07-19T10:58:08;100302.41;;;42.15;15.35
21956;BME280;11142;49.930;8.606;2022-07-19T11:00:42;100293.16;;;42.30;14.87
21956;BME280;11142;49.930;8.606;2022-07-19T11:03:28;100295.47;;;41.91;15.55
21956;BME280;11142;49.930;8.606;2022-07-19T11:05:58;100287.34;;;42.04;14.96
21956;BME280;11142;49.930;8.606;2022-07-19T11:08:32;100285.91;;;42.07;15.08
21956;BME280;11142;49.930;8.606;2022-07-19T11:11:05;100276.25;;;42.14;14.85
21956;BME280;11142;49.930;8.606;2022-07-19T11:13:35;100272.31;;;40.76;15.47
21956;BME280;11142;49.930;8.606;2022-07-19T11:16:05;100272.19;;;39.81;16.16
21956;BME280;11142;49.930;8.606;2022-07-19T11:18:34;100264.03;;;39.03;17.08
21956;BME280;11142;49.930;8.606;2022-07-19T11:21:04;100260.53;;;38.93;16.94
21956;BME280;11142;49.930;8.606;2022-07-19T11:23:34;100255.97;;;39.71;16.50
21956;BME280;11142;49.930;8.606;2022-07-19T11:26:08;100247.50;;;39.77;16.28
21956;BME280;11142;49.930;8.606;2022-07-19T11:28:37;100245.06;;;40.33;16.64
21956;BME280;11142;49.930;8.606;2022-07-19T11:31:15;100245.84;;;41.56;14.97
21956;BME280;11142;49.930;8.606;2022-07-19T11:33:45;100254.16;;;43.42;13.84
21956;BME280;11142;49.930;8.606;2022-07-19T11:36:15;100258.91;;;45.85;12.26
21956;BME280;11142;49.930;8.606;2022-07-19T11:38:45;100258.75;;;47.81;11.29
21956;BME280;11142;49.930;8.606;2022-07-19T11:41:15;100269.53;;;48.68;10.38
21956;BME280;11142;49.930;8.606;2022-07-19T11:43:51;100275.34;;;50.83;9.27
21956;BME280;11142;49.930;8.606;2022-07-19T11:46:22;100264.19;;;50.45;8.65
21956;BME280;11142;49.930;8.606;2022-07-19T11:48:55;100265.09;;;50.18;8.98
21956;BME280;11142;49.930;8.606;2022-07-19T11:51:24;100264.19;;;51.15;8.35
21956;BME280;11142;49.930;8.606;2022-07-19T11:53:56;100259.50;;;50.65;8.47
21956;BME280;11142;49.930;8.606;2022-07-19T11:56:26;100259.03;;;50.97;8.59
21956;BME280;11142;49.930;8.606;2022-07-19T11:58:57;100264.13;;;52.67;7.83
21956;BME280;11142;49.930;8.606;2022-07-19T12:01:28;100270.22;;;53.79;7.31
21956;BME280;11142;49.930;8.606;2022-07-19T12:03:59;100258.16;;;52.16;7.93
21956;BME280;11142;49.930;8.606;2022-07-19T12:06:35;100253.13;;;53.37;7.63
21956;BME280;11142;49.930;8.606;2022-07-19T12:09:09;100260.09;;;52.94;7.59
21956;BME280;11142;49.930;8.606;2022-07-19T12:11:40;100258.94;;;53.62;7.82
21956;BME280;11142;49.930;8.606;2022-07-19T12:14:19;100254.41;;;54.34;7.33
21956;BME280;11142;49.930;8.606;2022-07-19T12:16:51;100257.34;;;56.48;6.30
21956;BME280;11142;49.930;8.606;2022-07-19T12:19:36;100258.91;;;58.76;5.53
21956;BME280;11142;49.930;8.606;2022-07-19T12:22:26;100228.41;;;54.67;7.41
21956;BME280;11142;49.930;8.606;2022-07-19T12:24:54;100220.59;;;51.95;8.32
21956;BME280;11142;49.930;8.606;2022-07-19T12:27:28;100224.56;;;51.72;8.43
21956;BME280;11142;49.930;8.606;2022-07-19T12:29:57;100215.28;;;52.32;7.76
21956;BME280;11142;49.930;8.606;2022-07-19T12:32:28;100225.28;;;52.40;8.23
21956;BME280;11142;49.930;8.606;2022-07-19T12:34:58;100215.09;;;51.12;8.50
21956;BME280;11142;49.930;8.606;2022-07-19T12:37:30;100211.38;;;51.23;8.55
21956;BME280;11142;49.930;8.606;2022-07-19T12:40:01;100202.03;;;49.45;9.23
21956;BME280;11142;49.930;8.606;2022-07-19T12:42:41;100192.03;;;48.85;9.67
21956;BME280;11142;49.930;8.606;2022-07-19T12:45:11;100182.63;;;47.97;9.86
21956;BME280;11142;49.930;8.606;2022-07-19T12:47:41;100208.53;;;50.31;8.92
21956;BME280;11142;49.930;8.606;2022-07-19T12:50:19;100206.97;;;52.92;7.56
21956;BME280;11142;49.930;8.606;2022-07-19T12:52:48;100208.38;;;52.23;8.39
21956;BME280;11142;49.930;8.606;2022-07-19T12:55:17;100203.31;;;54.60;7.08
21956;BME280;11142;49.930;8.606;2022-07-19T12:57:46;100198.63;;;54.85;6.71
21956;BME280;11142;49.930;8.606;2022-07-19T13:00:15;100205.31;;;53.98;7.05
21956;BME280;11142;49.930;8.606;2022-07-19T13:02:47;100206.06;;;53.54;7.13
21956;BME280;11142;49.930;8.606;2022-07-19T13:05:17;100211.66;;;54.60;7.31
21956;BME280;11142;49.930;8.606;2022-07-19T13:07:48;100212.56;;;53.66;6.94
21956;BME280;11142;49.930;8.606;2022-07-19T13:10:17;100209.28;;;54.62;6.47
21956;BME280;11142;49.930;8.606;2022-07-19T13:12:45;100202.13;;;54.61;6.33